Time;durP1;ratioP1;P1;durP2;ratioP2;P2;SDS_P1;SDS_P2;PMS_P1;PMS_P2;Temp;Humidity;BMP_temperature;BMP_pressure;BME280_temperature;BME280_humidity;BME280_pressure;Samples;Min_cycle;Max_cycle;Signal;HPM_P1;HPM_P2
2022/04/27 00:01:36;;;;;;;17.60;9.55;;;;;;;5.99;78.62;102352.19;5016343;28;20802;-72
2022/04/27 00:04:02;;;;;;;19.25;9.82;;;;;;;5.90;78.40;102347.72;5009328;28;20105;-72
2022/04/27 00:06:27;;;;;;;19.40;10.63;;;;;;;5.90;78.96;102356.31;5007941;28;20051;-72
2022/04/27 00:08:52;;;;;;;23.67;10.83;;;;;;;5.84;79.20;102357.88;5010684;28;20021;-72
2022/04/27 00:11:17;;;;;;;22.00;10.93;;;;;;;5.77;79.25;102364.59;5014317;28;20280;-72
2022/04/27 00:13:43;;;;;;;23.95;10.80;;;;;;;5.72;78.70;102361.06;5021735;28;20284;-72
2022/04/27 00:16:08;;;;;;;22.13;10.45;;;;;;;5.68;79.35;102355.81;5008242;28;20042;-72
2022/04/27 00:18:33;;;;;;;21.38;11.02;;;;;;;5.64;79.57;102356.59;5020466;28;20034;-72
2022/04/27 00:20:59;;;;;;;24.67;11.02;;;;;;;5.56;79.68;102343.56;5020537;28;20388;-72
2022/04/27 00:23:25;;;;;;;26.95;11.55;;;;;;;5.52;80.13;102352.06;5007607;28;20365;-72
2022/04/27 00:25:51;;;;;;;26.95;12.05;;;;;;;5.49;80.20;102345.16;5009024;28;20176;-72
2022/04/27 00:28:16;;;;;;;29.40;11.93;;;;;;;5.44;80.48;102341.63;5011382;28;20069;-72
2022/04/27 00:30:41;;;;;;;26.00;11.82;;;;;;;5.41;79.56;102351.81;5015244;28;20487;-72
2022/04/27 00:33:07;;;;;;;25.83;12.13;;;;;;;5.36;80.35;102352.56;5017265;28;20030;-72
2022/04/27 00:35:32;;;;;;;27.10;12.15;;;;;;;5.34;80.18;102351.66;5010929;28;20113;-72
2022/04/27 00:37:57;;;;;;;24.83;12.02;;;;;;;5.31;81.09;102349.03;5018575;28;20025;-72
2022/04/27 00:40:22;;;;;;;24.08;11.57;;;;;;;5.27;80.83;102353.22;5016401;28;20040;-72
2022/04/27 00:42:48;;;;;;;28.00;12.17;;;;;;;5.26;80.98;102353.19;5011710;28;20060;-72
2022/04/27 00:45:13;;;;;;;23.63;11.30;;;;;;;5.23;80.72;102356.56;5011672;28;20860;-72
2022/04/27 00:47:38;;;;;;;26.67;12.02;;;;;;;5.19;80.75;102359.06;5012216;28;20030;-72
2022/04/27 00:50:04;;;;;;;25.80;11.77;;;;;;;5.12;81.43;102351.16;5013929;28;20057;-72
2022/04/27 00:52:33;;;;;;;24.25;11.35;;;;;;;5.11;80.96;102356.31;5013121;28;20025;-72
2022/04/27 00:54:58;;;;;;;22.20;11.05;;;;;;;5.07;80.95;102357.03;5011739;28;20041;-72
2022/04/27 00:57:24;;;;;;;26.20;11.82;;;;;;;5.00;81.03;102350.03;5013945;28;20034;-71
2022/04/27 00:59:50;;;;;;;28.13;11.98;;;;;;;4.99;81.46;102358.56;5015515;28;20034;-72
2022/04/27 01:02:18;;;;;;;23.10;10.77;;;;;;;4.95;81.08;102361.91;5016002;28;20593;-72
2022/04/27 01:04:44;;;;;;;25.15;11.60;;;;;;;4.90;81.66;102355.81;5013207;28;20018;-72
2022/04/27 01:07:11;;;;;;;25.17;11.65;;;;;;;4.85;81.69;102357.38;5012455;28;20133;-71
2022/04/27 01:09:37;;;;;;;27.40;12.13;;;;;;;4.83;81.63;102359.06;5014557;28;20029;-72
2022/04/27 01:12:03;;;;;;;23.30;11.68;;;;;;;4.78;81.53;102364.94;5014479;28;20025;-72
2022/04/27 01:14:28;;;;;;;24.92;11.57;;;;;;;4.75;81.88;102374.28;5010713;28;20041;-72
2022/04/27 01:16:57;;;;;;;27.42;12.05;;;;;;;4.72;81.94;102371.63;5013977;28;20391;-71
2022/04/27 01:19:24;;;;;;;27.80;11.77;;;;;;;4.66;81.95;102372.34;5009481;28;20596;-72
2022/04/27 01:21:50;;;;;;;23.77;11.73;;;;;;;4.62;82.09;102380.81;5011630;28;20067;-71
2022/04/27 01:24:20;;;;;;;25.88;11.52;;;;;;;4.59;81.93;102383.28;5011307;28;20122;-72
2022/04/27 01:26:46;;;;;;;24.67;11.95;;;;;;;4.58;82.21;102388.38;5010575;28;20030;-71
2022/04/27 01:29:14;;;;;;;26.08;11.75;;;;;;;4.53;83.02;102385.69;5008412;28;20033;-72
2022/04/27 01:31:40;;;;;;;28.48;12.55;;;;;;;4.50;83.08;102375.38;5011607;28;20087;-72
2022/04/27 01:34:05;;;;;;;29.00;13.05;;;;;;;4.52;83.25;102380.50;5014472;28;20116;-72
2022/04/27 01:36:30;;;;;;;26.53;12.60;;;;;;;4.52;82.32;102390.78;5011310;28;20026;-72
2022/04/27 01:38:55;;;;;;;26.50;12.27;;;;;;;4.51;82.58;102389.91;5009567;28;20422;-72
2022/04/27 01:41:21;;;;;;;25.13;11.95;;;;;;;4.48;82.63;102384.72;5011312;28;20277;-72
2022/04/27 01:43:46;;;;;;;26.92;11.93;;;;;;;4.48;83.34;102384.72;5008336;28;20225;-72
2022/04/27 01:46:12;;;;;;;28.55;12.27;;;;;;;4.45;82.63;102387.19;5010243;28;20018;-71
2022/04/27 01:48:37;;;;;;;26.17;11.90;;;;;;;4.41;83.28;102385.38;5009285;28;20026;-72
2022/04/27 01:51:02;;;;;;;28.40;11.93;;;;;;;4.38;83.90;102388.72;5025199;28;20587;-72
2022/04/27 01:56:12;;;;;;;29.48;12.70;;;;;;;4.34;84.07;102399.75;5011345;28;20122;-72
2022/04/27 01:58:37;;;;;;;26.92;12.15;;;;;;;4.31;84.12;102397.09;5009024;28;20120;-72
2022/04/27 02:01:02;;;;;;;26.80;12.10;;;;;;;4.33;84.29;102394.56;5009430;28;20107;-72
2022/04/27 02:03:27;;;;;;;30.15;11.85;;;;;;;4.29;83.97;102396.22;5010795;28;20022;-72
2022/04/27 02:05:53;;;;;;;27.03;12.37;;;;;;;4.27;84.11;102392.72;5019676;28;20030;-72
2022/04/27 02:08:19;;;;;;;25.25;11.73;;;;;;;4.25;83.76;102401.19;5010645;28;20265;-72
2022/04/27 02:10:45;;;;;;;27.00;11.95;;;;;;;4.20;83.13;102392.50;5008974;28;20046;-72
2022/04/27 02:13:11;;;;;;;26.85;11.77;;;;;;;4.22;84.10;102404.56;5007347;28;20120;-72
2022/04/27 02:15:37;;;;;;;28.42;12.45;;;;;;;4.21;84.63;102405.41;5013881;28;20055;-71
2022/04/27 02:18:03;;;;;;;24.58;11.77;;;;;;;4.20;83.96;102411.34;5010835;28;20373;-72
2022/04/27 02:20:28;;;;;;;26.85;12.52;;;;;;;4.18;84.45;102407.00;5018082;28;20105;-72
2022/04/27 02:22:54;;;;;;;26.95;12.95;;;;;;;4.18;84.63;102417.25;5017000;28;20050;-72
2022/04/27 02:25:20;;;;;;;28.17;12.57;;;;;;;4.17;84.92;102413.81;5010124;28;20021;-72
2022/04/27 02:27:47;;;;;;;30.35;12.55;;;;;;;4.12;84.40;102417.09;5009986;28;20129;-72
2022/04/27 02:30:12;;;;;;;28.05;13.10;;;;;;;4.13;85.12;102419.69;5011313;28;20466;-72
2022/04/27 02:32:39;;;;;;;32.03;13.13;;;;;;;4.09;84.58;102417.88;5009566;28;20199;-71
2022/04/27 02:35:06;;;;;;;28.92;12.80;;;;;;;4.09;85.23;102425.59;5009693;28;20247;-72
2022/04/27 02:37:32;;;;;;;29.02;13.80;;;;;;;4.08;85.51;102422.97;5008929;28;20026;-72
2022/04/27 02:39:58;;;;;;;29.35;12.82;;;;;;;4.06;85.53;102417.78;5009589;28;20395;-72
2022/04/27 02:42:23;;;;;;;33.78;13.80;;;;;;;4.05;85.73;102422.88;5017099;28;20042;-72
2022/04/27 02:44:49;;;;;;;29.50;13.13;;;;;;;4.06;85.73;102424.63;5005284;28;20022;-72
2022/04/27 02:47:14;;;;;;;29.90;13.05;;;;;;;4.06;85.69;102424.63;5009503;28;20099;-71
2022/04/27 02:52:23;;;;;;;33.47;13.70;;;;;;;4.05;85.92;102426.31;5009438;28;20067;-72
2022/04/27 02:54:49;;;;;;;27.02;12.93;;;;;;;4.01;85.79;102427.06;5010416;28;20138;-72
2022/04/27 02:57:16;;;;;;;31.33;13.60;;;;;;;4.00;85.85;102427.88;5008772;28;20038;-72
2022/04/27 02:59:42;;;;;;;35.53;14.75;;;;;;;4.00;86.57;102420.19;5013011;28;20028;-72
2022/04/27 03:02:07;;;;;;;31.58;14.20;;;;;;;3.96;86.50;102423.47;5022539;28;20030;-72
2022/04/27 03:04:32;;;;;;;32.47;13.37;;;;;;;3.96;86.27;102421.78;5006449;28;20121;-72
2022/04/27 03:06:57;;;;;;;30.67;13.95;;;;;;;3.95;86.27;102426.88;5008411;28;20281;-72
2022/04/27 03:09:23;;;;;;;32.97;14.40;;;;;;;3.94;86.46;102425.16;5008177;28;20029;-72
2022/04/27 03:11:49;;;;;;;32.42;14.68;;;;;;;3.92;86.45;102427.66;5008919;28;20751;-72
2022/04/27 03:14:14;;;;;;;31.83;13.63;;;;;;;3.88;86.00;102427.53;5009556;28;20022;-72
2022/04/27 03:16:39;;;;;;;36.35;14.32;;;;;;;3.93;86.87;102431.97;5007990;28;20045;-72
2022/04/27 03:19:04;;;;;;;33.67;14.50;;;;;;;3.90;85.96;102428.44;5009898;28;20133;-72
2022/04/27 03:21:32;;;;;;;33.40;14.77;;;;;;;3.88;85.54;102432.66;5012264;28;20280;-72
2022/04/27 03:23:58;;;;;;;34.17;14.50;;;;;;;3.87;85.82;102433.50;5008042;28;20767;-72
2022/04/27 03:26:23;;;;;;;33.15;14.63;;;;;;;3.86;87.13;102430.06;5019865;28;20054;-72
2022/04/27 03:28:49;;;;;;;36.38;14.57;;;;;;;3.88;87.64;102438.66;5009349;28;20018;-72
2022/04/27 03:31:14;;;;;;;32.70;13.63;;;;;;;3.82;86.40;102438.47;5016949;28;20088;-72
2022/04/27 03:33:39;;;;;;;31.08;14.00;;;;;;;3.82;86.73;102433.34;5009201;28;20457;-72
2022/04/27 03:36:08;;;;;;;32.22;14.10;;;;;;;3.81;86.92;102441.88;5009099;28;20036;-72
2022/04/27 03:38:33;;;;;;;31.48;13.80;;;;;;;3.78;86.58;102443.47;5009797;28;20480;-72
2022/04/27 03:40:59;;;;;;;32.30;13.75;;;;;;;3.75;86.81;102435.69;5010126;28;20263;-72
2022/04/27 03:43:24;;;;;;;32.37;14.20;;;;;;;3.74;87.37;102441.66;5008122;28;20088;-72
2022/04/27 03:45:49;;;;;;;33.27;14.00;;;;;;;3.70;86.56;102448.38;5016731;28;20803;-72
2022/04/27 03:48:15;;;;;;;32.87;14.07;;;;;;;3.70;86.69;102450.94;5007764;28;20268;-72
2022/04/27 03:50:40;;;;;;;32.42;13.60;;;;;;;3.66;86.72;102449.09;5013837;28;20402;-72
2022/04/27 03:53:06;;;;;;;30.08;13.98;;;;;;;3.63;86.28;102449.00;5008921;28;20025;-72
2022/04/27 03:55:33;;;;;;;32.55;14.27;;;;;;;3.61;86.89;102448.09;5014030;28;20100;-72
2022/04/27 03:58:00;;;;;;;34.22;14.25;;;;;;;3.57;87.30;102453.94;5009304;28;20022;-72
2022/04/27 04:00:26;;;;;;;35.47;14.32;;;;;;;3.56;87.55;102458.19;5012019;28;20033;-72
2022/04/27 04:02:51;;;;;;;31.63;13.77;;;;;;;3.54;87.06;102461.56;5009035;28;20080;-72
2022/04/27 04:05:16;;;;;;;31.30;14.00;;;;;;;3.51;87.08;102458.88;5012152;28;20030;-72
2022/04/27 04:07:41;;;;;;;34.22;13.90;;;;;;;3.50;87.33;102457.13;5009125;28;20030;-72
2022/04/27 04:10:07;;;;;;;32.13;14.40;;;;;;;3.46;86.90;102456.19;5006237;28;20041;-72
2022/04/27 04:12:33;;;;;;;31.10;14.13;;;;;;;3.46;87.59;102466.44;5027232;28;20029;-72
2022/04/27 04:14:58;;;;;;;33.37;14.97;;;;;;;3.44;87.45;102464.63;5011549;28;20034;-72
2022/04/27 04:17:23;;;;;;;29.77;14.23;;;;;;;3.43;87.42;102468.03;5014219;28;20276;-72
2022/04/27 04:19:48;;;;;;;35.45;15.18;;;;;;;3.40;87.26;102467.94;5012799;28;20788;-72
2022/04/27 04:22:14;;;;;;;33.55;14.20;;;;;;;3.40;87.69;102475.63;5015280;28;20107;-72
2022/04/27 04:28:29;;;;;;;33.33;14.32;;;;;;;3.37;87.48;102467.84;5022014;28;20116;-72
2022/04/27 04:30:10;;;;;;;33.57;14.63;;;;;;;3.38;87.44;102474.69;5010128;28;20822;-72
2022/04/27 04:32:38;;;;;;;32.67;13.75;;;;;;;3.36;87.42;102474.66;5013344;28;20436;-72
2022/04/27 04:35:05;;;;;;;32.63;13.57;;;;;;;3.36;87.03;102482.34;5013289;28;20030;-72
2022/04/27 04:37:31;;;;;;;38.17;14.32;;;;;;;3.35;87.28;102489.97;5010090;28;20369;-72
2022/04/27 04:39:57;;;;;;;32.70;14.13;;;;;;;3.32;87.19;102492.44;5011450;28;20384;-72
2022/04/27 04:42:22;;;;;;;34.08;14.23;;;;;;;3.32;87.47;102495.00;5014112;28;20445;-72
2022/04/27 04:44:47;;;;;;;38.42;14.30;;;;;;;3.33;87.32;102499.31;5024843;28;20497;-72
2022/04/27 04:47:13;;;;;;;34.23;14.30;;;;;;;3.33;87.35;102497.63;5015047;28;20045;-72
2022/04/27 04:49:38;;;;;;;36.57;14.80;;;;;;;3.36;87.48;102501.97;5012811;28;20773;-72
2022/04/27 04:52:03;;;;;;;33.83;14.70;;;;;;;3.38;87.73;102502.91;5011653;28;20336;-71
2022/04/27 04:54:29;;;;;;;39.30;15.20;;;;;;;3.40;87.57;102509.81;5011208;28;20308;-72
2022/04/27 04:56:54;;;;;;;37.93;15.23;;;;;;;3.44;87.61;102519.34;5014981;28;20230;-72
2022/04/27 04:59:19;;;;;;;34.20;14.95;;;;;;;3.48;87.74;102513.47;5028039;28;20300;-72
2022/04/27 05:01:44;;;;;;;34.97;14.20;;;;;;;3.51;87.13;102512.72;5006048;28;20150;-71
2022/04/27 05:04:10;;;;;;;34.63;14.60;;;;;;;3.51;87.51;102517.84;5009654;28;20293;-71
2022/04/27 05:06:35;;;;;;;36.57;15.83;;;;;;;3.54;87.56;102516.28;5015185;28;20287;-71
2022/04/27 05:09:00;;;;;;;34.00;14.93;;;;;;;3.58;87.59;102512.97;5014666;28;20388;-71
2022/04/27 05:11:26;;;;;;;36.72;15.48;;;;;;;3.64;88.01;102526.78;5011972;28;20272;-72
2022/04/27 05:13:51;;;;;;;32.97;14.75;;;;;;;3.65;87.67;102516.59;5003792;28;20504;-72
2022/04/27 05:16:16;;;;;;;32.40;15.10;;;;;;;3.71;87.58;102524.47;5013769;28;20041;-72
2022/04/27 05:18:42;;;;;;;36.73;14.90;;;;;;;3.76;87.83;102516.91;5012543;28;20432;-72
2022/04/27 05:21:07;;;;;;;40.97;16.17;;;;;;;3.79;88.09;102520.47;5019280;28;20272;-72
2022/04/27 05:23:32;;;;;;;36.80;15.90;;;;;;;3.85;88.12;102523.22;5009748;28;20306;-72
2022/04/27 05:25:58;;;;;;;34.50;15.93;;;;;;;3.92;88.55;102529.41;5009602;28;20033;-72
2022/04/27 05:28:23;;;;;;;37.95;15.77;;;;;;;3.96;88.14;102524.38;5022984;28;20731;-72
2022/04/27 05:33:32;;;;;;;38.47;16.53;;;;;;;4.11;88.33;102531.69;5012102;28;20315;-72
2022/04/27 05:35:57;;;;;;;37.90;16.00;;;;;;;4.19;88.71;102543.06;5009273;28;20029;-72
2022/04/27 05:38:23;;;;;;;37.83;16.58;;;;;;;4.26;88.87;102546.66;5010340;28;20812;-72
2022/04/27 05:40:48;;;;;;;38.47;16.52;;;;;;;4.33;88.89;102554.59;5021092;28;20037;-72
2022/04/27 05:43:13;;;;;;;39.13;17.52;;;;;;;4.44;89.29;102541.19;5015214;28;20091;-72
2022/04/27 05:45:38;;;;;;;36.90;15.63;;;;;;;4.53;89.23;102544.91;5015062;28;20042;-72
2022/04/27 05:48:04;;;;;;;39.83;17.17;;;;;;;4.64;89.17;102552.91;5008622;28;20025;-72
2022/04/27 05:50:30;;;;;;;38.50;16.88;;;;;;;4.71;88.59;102557.38;5006518;28;20574;-73
2022/04/27 05:52:56;;;;;;;38.17;17.65;;;;;;;4.82;89.42;102562.81;5016772;28;20049;-73
2022/04/27 05:55:22;;;;;;;42.67;19.45;;;;;;;4.90;90.06;102556.19;5013128;28;20069;-73
2022/04/27 05:57:48;;;;;;;43.08;18.27;;;;;;;4.95;89.33;102549.47;5004010;28;20099;-72
2022/04/27 06:00:14;;;;;;;42.92;19.70;;;;;;;5.10;90.03;102566.19;5010295;28;20034;-72
2022/04/27 06:02:39;;;;;;;41.05;18.85;;;;;;;5.23;90.04;102561.34;5022332;28;20033;-72
2022/04/27 06:05:06;;;;;;;43.05;19.63;;;;;;;5.37;89.53;102557.44;5010286;28;20336;-72
2022/04/27 06:07:34;;;;;;;46.00;20.27;;;;;;;5.52;89.37;102563.84;5011069;28;20406;-72
2022/04/27 06:09:59;;;;;;;37.83;17.83;;;;;;;5.66;87.77;102566.75;5013456;28;20026;-72
2022/04/27 06:12:29;;;;;;;41.10;18.15;;;;;;;5.78;86.25;102566.16;5016868;28;20090;-73
2022/04/27 06:14:54;;;;;;;39.58;16.98;;;;;;;5.99;87.16;102569.25;5012533;28;20022;-73
2022/04/27 06:17:19;;;;;;;39.72;17.85;;;;;;;6.39;86.95;102565.84;5015163;28;20030;-73
2022/04/27 06:19:45;;;;;;;37.30;16.73;;;;;;;7.05;84.39;102568.88;5015797;28;20041;-73
2022/04/27 06:22:10;;;;;;;34.77;15.53;;;;;;;7.21;82.75;102567.44;5020047;28;20323;-73
2022/04/27 06:24:35;;;;;;;37.63;17.03;;;;;;;7.11;81.42;102574.13;5010111;28;20324;-73
2022/04/27 06:27:00;;;;;;;35.90;16.65;;;;;;;7.02;82.05;102571.41;5023759;28;20666;-73
2022/04/27 06:29:26;;;;;;;41.17;16.92;;;;;;;7.07;83.11;102580.09;5015673;28;20412;-73
2022/04/27 06:31:51;;;;;;;35.58;16.73;;;;;;;7.08;82.42;102575.81;5006743;28;20476;-73
2022/04/27 06:34:16;;;;;;;39.97;17.50;;;;;;;7.13;84.06;102587.06;5009738;28;20392;-74
2022/04/27 06:36:42;;;;;;;37.85;15.65;;;;;;;7.24;82.22;102582.09;5008776;28;20355;-73
2022/04/27 06:39:08;;;;;;;37.35;16.83;;;;;;;7.58;84.06;102589.56;5010226;28;20029;-73
2022/04/27 06:41:33;;;;;;;40.15;17.77;;;;;;;8.55;83.24;102588.47;5009627;28;20476;-74
2022/04/27 06:43:58;;;;;;;36.50;16.70;;;;;;;9.69;78.60;102587.03;5013294;28;20041;-73
2022/04/27 06:46:24;;;;;;;35.15;14.68;;;;;;;10.12;75.97;102583.03;5008445;28;20496;-74
2022/04/27 06:48:49;;;;;;;31.13;15.27;;;;;;;10.05;73.18;102590.75;5010326;28;20026;-73
2022/04/27 06:51:17;;;;;;;29.45;14.85;;;;;;;9.90;75.03;102599.28;5010134;28;20045;-74
2022/04/27 06:53:43;;;;;;;28.30;13.00;;;;;;;9.86;73.24;102592.38;5009510;28;20480;-74
2022/04/27 06:56:08;;;;;;;28.92;13.30;;;;;;;10.13;70.30;102602.91;5004548;28;20040;-74
2022/04/27 06:58:33;;;;;;;22.73;11.50;;;;;;;10.68;68.08;102600.66;4998995;28;20022;-74
2022/04/27 07:00:59;;;;;;;27.17;12.15;;;;;;;11.22;66.77;102599.94;5017526;28;20029;-75
2022/04/27 07:03:24;;;;;;;29.85;12.88;;;;;;;11.71;67.66;102597.38;5012282;28;20540;-75
2022/04/27 07:05:50;;;;;;;23.50;12.25;;;;;;;11.85;67.85;102601.75;5022138;28;20041;-75
2022/04/27 07:08:15;;;;;;;24.40;12.85;;;;;;;11.79;66.89;102598.28;5014151;28;20022;-76
2022/04/27 07:10:40;;;;;;;26.10;13.02;;;;;;;11.74;65.21;102598.25;5010400;28;20044;-76
2022/04/27 07:13:05;;;;;;;27.33;13.33;;;;;;;11.65;69.30;102606.06;5011926;28;20041;-76
2022/04/27 07:15:32;;;;;;;24.55;12.52;;;;;;;12.09;67.74;102590.44;5004879;28;20731;-76
2022/04/27 07:17:57;;;;;;;28.00;12.75;;;;;;;12.41;65.03;102608.56;5014197;28;20472;-76
2022/04/27 07:20:23;;;;;;;22.92;12.00;;;;;;;12.80;61.78;102606.69;5019627;28;20121;-76
2022/04/27 07:22:48;;;;;;;22.75;11.95;;;;;;;13.10;61.45;102606.50;5011583;28;20036;-76
2022/04/27 07:25:15;;;;;;;22.10;11.97;;;;;;;13.27;60.07;102606.44;5001646;28;20022;-77
2022/04/27 07:27:40;;;;;;;23.05;12.20;;;;;;;13.48;61.04;102613.25;5012331;28;20338;-77
2022/04/27 07:30:06;;;;;;;21.97;11.97;;;;;;;13.96;61.74;102607.63;5016247;28;20118;-78
2022/04/27 07:32:31;;;;;;;22.00;11.60;;;;;;;14.17;57.90;102607.44;5014763;28;20279;-78
2022/04/27 07:34:57;;;;;;;17.53;9.80;;;;;;;14.39;53.26;102615.06;5016826;28;20045;-78
2022/04/27 07:37:22;;;;;;;17.67;9.50;;;;;;;14.52;51.44;102625.34;5021153;28;20366;-78
2022/04/27 07:39:47;;;;;;;16.70;9.00;;;;;;;14.08;51.45;102620.53;5008844;28;20023;-78
2022/04/27 07:42:13;;;;;;;16.88;8.82;;;;;;;13.47;55.43;102616.72;5008483;28;20294;-78
2022/04/27 07:44:38;;;;;;;19.43;10.23;;;;;;;13.09;53.71;102620.44;5010099;28;20133;-78
2022/04/27 07:47:03;;;;;;;16.30;8.47;;;;;;;13.13;54.28;102622.16;5025107;28;20383;-78
2022/04/27 07:49:29;;;;;;;18.10;9.40;;;;;;;13.29;55.00;102621.19;5013231;28;20315;-78
2022/04/27 07:51:54;;;;;;;16.53;8.73;;;;;;;13.84;52.14;102621.66;5011397;28;20435;-78
2022/04/27 07:54:19;;;;;;;14.45;8.63;;;;;;;14.49;53.65;102624.50;5016058;28;20296;-78
2022/04/27 07:56:45;;;;;;;16.98;7.93;;;;;;;15.36;51.31;102627.69;5012713;28;20392;-78
2022/04/27 07:59:10;;;;;;;15.95;7.82;;;;;;;15.94;48.75;102628.53;5017746;28;20407;-77
2022/04/27 08:01:35;;;;;;;13.10;7.95;;;;;;;16.50;47.15;102620.50;5017733;28;20030;-78
2022/04/27 08:04:01;;;;;;;16.42;8.35;;;;;;;16.94;45.47;102621.34;5015703;28;20025;-77
2022/04/27 08:06:26;;;;;;;13.18;6.97;;;;;;;17.14;40.42;102634.88;5013087;28;20029;-78
2022/04/27 08:08:51;;;;;;;14.77;7.57;;;;;;;17.37;43.48;102631.72;5012504;28;20030;-75
2022/04/27 08:11:17;;;;;;;14.43;7.22;;;;;;;17.86;45.72;102630.56;5011523;28;20021;-75
2022/04/27 08:13:43;;;;;;;10.45;7.18;;;;;;;18.42;44.67;102632.53;5015658;28;20118;-75
2022/04/27 08:16:10;;;;;;;13.00;6.82;;;;;;;18.43;36.34;102629.00;5013534;28;20038;-75
2022/04/27 08:18:36;;;;;;;10.35;5.63;;;;;;;18.79;37.93;102629.75;5011999;28;20018;-75
2022/04/27 08:21:14;;;;;;;10.65;6.10;;;;;;;18.62;35.80;102636.44;5012895;28;20057;-76
2022/04/27 08:23:40;;;;;;;11.90;6.45;;;;;;;18.67;38.11;102637.16;5008837;28;20476;-75
2022/04/27 08:26:07;;;;;;;10.43;6.20;;;;;;;18.59;38.22;102644.38;5012156;28;20146;-75
2022/04/27 08:28:33;;;;;;;15.48;7.28;;;;;;;18.40;37.30;102638.75;5012542;28;20022;-77
2022/04/27 08:30:59;;;;;;;12.27;6.93;;;;;;;18.22;38.37;102632.22;5011341;28;20029;-77
2022/04/27 08:33:25;;;;;;;12.27;6.90;;;;;;;18.10;39.00;102637.81;5012585;28;20353;-76
2022/04/27 08:35:51;;;;;;;13.63;7.05;;;;;;;18.01;37.60;102644.19;5013044;28;20376;-76
2022/04/27 08:38:16;;;;;;;12.27;6.90;;;;;;;17.90;41.30;102640.94;5011482;28;20048;-76
2022/04/27 08:40:44;;;;;;;13.48;6.53;;;;;;;17.54;38.27;102653.16;5016509;28;20077;-76
2022/04/27 08:43:10;;;;;;;13.88;6.85;;;;;;;17.20;37.96;102647.84;5012995;28;20021;-76
2022/04/27 08:45:36;;;;;;;12.45;7.50;;;;;;;16.74;38.54;102653.19;5022909;28;20282;-76
2022/04/27 08:48:03;;;;;;;11.57;7.20;;;;;;;16.53;40.50;102654.44;5012383;28;20119;-76
2022/04/27 08:50:28;;;;;;;14.18;7.07;;;;;;;16.36;41.88;102646.06;5012418;28;20141;-76
2022/04/27 08:52:55;;;;;;;12.95;7.03;;;;;;;16.50;44.41;102648.44;5011339;28;20141;-76
2022/04/27 08:55:21;;;;;;;11.98;7.10;;;;;;;16.62;41.68;102652.59;5023586;28;20026;-76
2022/04/27 08:57:48;;;;;;;11.82;6.93;;;;;;;16.51;41.49;102655.41;5011203;28;20065;-76
2022/04/27 09:00:16;;;;;;;11.50;6.90;;;;;;;16.56;44.52;102656.16;5017521;28;20038;-75
2022/04/27 09:02:42;;;;;;;13.77;7.05;;;;;;;16.55;42.56;102651.81;5011443;28;20109;-75
2022/04/27 09:05:11;;;;;;;11.25;6.63;;;;;;;16.53;42.15;102658.81;5021377;28;20377;-75
2022/04/27 09:07:39;;;;;;;14.63;7.05;;;;;;;16.70;42.87;102659.41;5011265;28;20099;-75
2022/04/27 09:10:12;;;;;;;12.43;7.13;;;;;;;16.87;43.87;102657.28;5010606;28;20556;-75
2022/04/27 09:12:46;;;;;;;17.38;7.65;;;;;;;16.90;40.60;102653.75;5010286;28;20439;-75
2022/04/27 09:15:12;;;;;;;14.32;7.50;;;;;;;16.68;39.16;102660.31;5020710;28;20598;-75
2022/04/27 09:23:24;;;;;;;12.90;7.53;;;;;;;15.74;42.60;102655.88;5010140;28;20522;-74
2022/04/27 09:25:52;;;;;;;11.80;7.40;;;;;;;15.71;42.21;102653.31;5006702;28;20092;-75
2022/04/27 09:28:21;;;;;;;12.32;7.25;;;;;;;15.57;41.05;102663.09;5011551;28;20026;-75
2022/04/27 09:30:48;;;;;;;12.18;7.05;;;;;;;15.57;43.50;102650.03;5011135;28;20032;-75
2022/04/27 09:33:13;;;;;;;14.93;8.25;;;;;;;15.48;40.79;102650.16;5023523;28;20022;-75
2022/04/27 09:35:39;;;;;;;13.23;8.07;;;;;;;15.42;40.98;102655.50;5016850;28;20026;-75
2022/04/27 09:38:13;;;;;;;11.98;7.35;;;;;;;15.56;42.89;102656.16;5009263;28;20285;-75
2022/04/27 09:40:46;;;;;;;15.55;7.47;;;;;;;15.88;42.41;102654.78;5011411;28;20449;-75
2022/04/27 09:43:14;;;;;;;14.30;8.00;;;;;;;16.13;41.74;102650.84;5018899;28;20037;-75
2022/04/27 09:45:40;;;;;;;11.38;7.68;;;;;;;16.40;41.07;102650.34;5011141;28;20026;-75
2022/04/27 09:48:08;;;;;;;12.65;7.70;;;;;;;16.39;40.53;102645.13;5008796;28;20076;-75
2022/04/27 09:50:47;;;;;;;12.90;7.68;;;;;;;16.51;43.71;102655.41;5004764;28;20046;-77
2022/04/27 09:53:14;;;;;;;14.23;8.10;;;;;;;16.48;40.78;102656.31;5010204;28;20033;-77
2022/04/27 09:55:50;;;;;;;14.93;7.85;;;;;;;16.53;42.87;102658.81;5011077;28;20602;-77
2022/04/27 09:58:18;;;;;;;14.63;8.45;;;;;;;16.46;40.36;102651.97;4999636;28;20053;-78
2022/04/27 10:00:45;;;;;;;13.82;8.07;;;;;;;16.21;39.29;102646.34;5011923;28;20034;-78
2022/04/27 10:03:15;;;;;;;15.23;8.45;;;;;;;16.12;40.86;102657.84;5014487;28;20034;-78
2022/04/27 10:05:41;;;;;;;17.30;8.95;;;;;;;15.94;39.88;102652.06;5009740;28;20026;-77
2022/04/27 10:08:08;;;;;;;14.05;9.07;;;;;;;15.64;40.36;102656.91;5009795;28;20026;-77
2022/04/27 10:10:36;;;;;;;16.75;8.82;;;;;;;15.64;40.03;102658.66;5009352;28;20060;-74
2022/04/27 10:13:02;;;;;;;14.82;9.52;;;;;;;15.65;43.20;102648.19;5013742;28;20030;-75
2022/04/27 10:15:29;;;;;;;15.43;9.52;;;;;;;15.75;39.83;102651.53;5009628;28;20040;-75
2022/04/27 10:17:55;;;;;;;15.85;8.73;;;;;;;15.90;42.98;102648.63;5010395;28;20559;-75
2022/04/27 10:20:39;;;;;;;17.00;8.60;;;;;;;16.17;42.23;102644.69;5009492;28;20038;-75
2022/04/27 10:23:28;;;;;;;15.90;8.82;;;;;;;16.34;41.37;102642.63;5009463;28;20030;-75
2022/04/27 10:26:12;;;;;;;13.90;9.00;;;;;;;16.73;43.10;102641.00;5009845;28;20045;-75
2022/04/27 10:28:40;;;;;;;;;;;;;;;17.05;43.76;102645.56;5010635;28;20082;-75
2022/04/27 10:31:08;;;;;;;17.13;9.95;;;;;;;17.21;38.83;102644.31;5010535;28;19949;-75
2022/04/27 10:33:50;;;;;;;17.23;10.35;;;;;;;17.21;39.91;102639.06;5010462;28;20141;-75
2022/04/27 10:36:28;;;;;;;16.35;9.43;;;;;;;17.17;39.89;102645.28;5008793;28;20049;-75
2022/04/27 10:39:11;;;;;;;16.10;9.32;;;;;;;16.92;39.31;102638.88;5015476;28;20064;-75
2022/04/27 10:41:38;;;;;;;14.55;9.02;;;;;;;16.23;38.93;102644.59;5010666;28;20475;-75
2022/04/27 10:44:04;;;;;;;15.65;9.23;;;;;;;15.89;40.68;102643.44;5009981;28;20033;-75
2022/04/27 10:46:43;;;;;;;15.02;9.90;;;;;;;15.88;41.69;102634.75;5009086;28;20030;-75
2022/04/27 10:49:28;;;;;;;16.20;10.13;;;;;;;15.94;41.29;102641.59;5009802;28;20014;-75
2022/04/27 10:52:07;;;;;;;18.95;10.48;;;;;;;15.77;39.89;102634.03;5004525;28;20589;-75
2022/04/27 10:54:37;;;;;;;19.02;10.52;;;;;;;15.70;40.52;102638.50;5004873;28;20144;-74
2022/04/27 10:57:14;;;;;;;18.48;10.68;;;;;;;15.50;40.44;102640.53;5029357;28;20057;-75
2022/04/27 10:59:51;;;;;;;17.67;11.27;;;;;;;15.29;40.94;102639.09;5001184;28;20116;-74
2022/04/27 11:02:36;;;;;;;20.88;10.60;;;;;;;15.17;42.20;102641.03;5020398;28;20045;-76
2022/04/27 11:05:03;;;;;;;19.17;11.30;;;;;;;14.90;41.25;102637.03;5003955;28;20400;-78
2022/04/27 11:07:28;;;;;;;20.60;11.32;;;;;;;14.62;42.63;102633.91;5017392;28;20029;-79
2022/04/27 11:10:16;;;;;;;18.47;10.53;;;;;;;14.39;42.59;102633.31;5009654;28;20040;-78
2022/04/27 11:12:46;;;;;;;20.15;11.02;;;;;;;14.19;43.90;102631.72;5009918;28;20091;-78
2022/04/27 11:15:17;;;;;;;18.05;10.60;;;;;;;14.42;45.71;102633.28;5010183;28;20029;-78
2022/04/27 11:17:43;;;;;;;15.95;10.40;;;;;;;14.68;43.65;102623.38;5009732;28;20030;-78
2022/04/27 11:20:25;;;;;;;19.48;10.23;;;;;;;14.98;44.11;102619.53;5014138;28;20105;-78
2022/04/27 11:22:51;;;;;;;16.40;10.23;;;;;;;15.43;42.85;102626.69;5008948;28;20538;-78
2022/04/27 11:25:28;;;;;;;16.58;10.27;;;;;;;15.91;42.85;102626.81;5012380;28;20527;-78
2022/04/27 11:27:54;;;;;;;17.27;9.85;;;;;;;16.38;41.65;102628.56;5006619;28;20445;-78
2022/04/27 11:30:20;;;;;;;15.68;10.05;;;;;;;16.78;41.55;102631.31;5008259;28;20057;-78
2022/04/27 11:32:47;;;;;;;18.75;10.48;;;;;;;17.21;41.77;102627.72;5009513;28;20028;-78